Londonderry, New Hampshire
Current Conditions -  °F | °C
As of 2:53 PM on Thursday 29 Jan 2015 (Local Time) from KMHT Reporting Station
Scattered Clouds Scattered Clouds  
Wind Chill: 23°   Ceiling: Unl
Heat Index: 31°   Visibility: 10mi
Dew Point:   Wind: 8mph
Humidity: 33%   Direction: 140°SE
Pressure: 30.16"   Gusts: NA
Location:  42.87°N, 71.37°W
Report Text: KMHT 291953Z 14007KT 10SM SCT250 M01/M15 A3016 RMK AO2 SLP233 T10061150
Loading
Personal Weather Stations






























Interactive Weather Map New forecast layout! Learn more

10-Day Weather Forecast

Advertisements
Track Severe Weather on mobile